Red Rock, Oklahoma
Current Conditions -  °F | °C
As of 5:53 AM on Thursday 25 Dec 2014 (Local Time) from KPNC Reporting Station
Clear Clear  
Wind Chill: 30°   Ceiling: Unl
Heat Index: 37°   Visibility: 10mi
Dew Point: 25°   Wind: 10mph
Humidity: 62%   Direction: 170°S
Pressure: 29.76"   Gusts: 20mph
Location:  36.46°N, 97.18°W
Report Text: KPNC 251153Z AUTO 17009G17KT 10SM CLR 03/M04 A2976 RMK AO2 SLP081 T00281039 10028 20017 55010
Loading
Personal Weather Stations






























Interactive Weather Map New forecast layout! Learn more

10-Day Weather Forecast

Advertisements
Track Severe Weather on mobile